createdAt,value
2023-01-30T00:00:36.603Z,100330.23
2023-01-30T00:05:57.119Z,100326.27
2023-01-30T00:11:13.543Z,100311.45
2023-01-30T00:16:19.686Z,100302.71
2023-01-30T00:21:23.417Z,100299.77
2023-01-30T00:26:27.885Z,100289.26
2023-01-30T00:31:31.688Z,100277.81
2023-01-30T00:36:35.583Z,100278.11
2023-01-30T00:41:58.628Z,100268.81
2023-01-30T00:47:06.350Z,100243.40
2023-01-30T00:52:10.313Z,100229.17
2023-01-30T00:57:14.149Z,100214.13
2023-01-30T01:02:18.471Z,100208.50
2023-01-30T01:07:22.740Z,100205.70
2023-01-30T01:12:27.024Z,100194.70
2023-01-30T01:17:30.971Z,100190.31
2023-01-30T01:22:35.502Z,100187.87
2023-01-30T01:27:39.264Z,100183.05
2023-01-30T01:32:42.963Z,100170.56
2023-01-30T01:37:47.186Z,100160.95
2023-01-30T01:42:51.363Z,100152.98
2023-01-30T01:48:35.601Z,100141.70
2023-01-30T01:53:54.151Z,100131.02
2023-01-30T01:59:03.364Z,100124.61
2023-01-30T02:04:10.265Z,100118.13
2023-01-30T02:09:14.574Z,100102.87
2023-01-30T02:14:19.675Z,100091.20
2023-01-30T02:19:41.260Z,100079.23
2023-01-30T02:25:01.769Z,100060.83
2023-01-30T02:30:39.712Z,100042.53
2023-01-30T02:36:19.107Z,100024.92
2023-01-30T02:41:25.685Z,100010.40
2023-01-30T02:46:58.239Z,100008.42
2023-01-30T02:52:04.329Z,99998.08
2023-01-30T02:57:23.747Z,99984.48
2023-01-30T03:02:51.160Z,99963.45
2023-01-30T03:08:09.942Z,99955.08
2023-01-30T03:13:41.721Z,99953.02
2023-01-30T03:18:51.540Z,99940.83
2023-01-30T03:23:55.261Z,99934.08
2023-01-30T03:29:00.944Z,99921.25
2023-01-30T03:34:04.518Z,99902.86
2023-01-30T03:39:08.736Z,99884.18
2023-01-30T03:44:13.124Z,99883.84
2023-01-30T03:49:19.173Z,99876.95
2023-01-30T03:54:23.705Z,99874.86
2023-01-30T03:59:28.204Z,99875.02
2023-01-30T04:04:38.626Z,99879.40
2023-01-30T04:09:43.106Z,99871.79
2023-01-30T04:14:48.204Z,99859.04
2023-01-30T04:20:12.544Z,99819.77
2023-01-30T04:25:21.309Z,99780.41
2023-01-30T04:30:26.486Z,99775.00
2023-01-30T04:35:37.627Z,99769.02
2023-01-30T04:40:42.198Z,99754.09
2023-01-30T04:45:47.466Z,99746.14
2023-01-30T04:50:53.821Z,99737.07
2023-01-30T04:55:57.635Z,99718.98
2023-01-30T05:01:38.000Z,99702.73
2023-01-30T05:06:42.121Z,99696.34
2023-01-30T05:11:45.834Z,99695.52
2023-01-30T05:16:49.700Z,99695.45
2023-01-30T05:21:53.502Z,99683.29
2023-01-30T05:26:57.283Z,99674.27
2023-01-30T05:32:00.993Z,99656.65
2023-01-30T05:37:05.482Z,99652.45
2023-01-30T05:42:09.510Z,99650.58
2023-01-30T05:47:13.969Z,99638.41
2023-01-30T05:52:17.798Z,99626.55
2023-01-30T05:57:21.481Z,99617.80
2023-01-30T06:02:26.002Z,99616.13
2023-01-30T06:07:30.481Z,99606.25
2023-01-30T06:12:34.648Z,99590.07
2023-01-30T06:17:40.422Z,99598.57
2023-01-30T06:22:44.275Z,99596.82
2023-01-30T06:27:48.876Z,99591.91
2023-01-30T06:32:52.797Z,99594.77
2023-01-30T06:37:56.519Z,99574.54
2023-01-30T06:43:02.602Z,99557.16
2023-01-30T06:48:07.145Z,99544.94
2023-01-30T06:53:11.700Z,99551.65
2023-01-30T06:58:16.262Z,99554.77
2023-01-30T07:03:20.606Z,99549.95
2023-01-30T07:08:52.672Z,99544.69
2023-01-30T07:14:38.939Z,99533.23
2023-01-30T07:20:13.159Z,99525.95
2023-01-30T07:25:26.448Z,99528.48
2023-01-30T07:30:42.754Z,99526.14
2023-01-30T07:35:52.510Z,99523.46
2023-01-30T07:41:00.012Z,99514.29
2023-01-30T07:46:04.474Z,99512.35
2023-01-30T07:51:08.716Z,99509.46
2023-01-30T07:56:19.683Z,99507.23
2023-01-30T08:01:25.523Z,99500.48
2023-01-30T08:06:31.933Z,99496.27
2023-01-30T08:11:36.808Z,99496.80
2023-01-30T08:16:43.344Z,99489.83
2023-01-30T08:21:48.154Z,99485.59
2023-01-30T08:26:55.343Z,99486.80
2023-01-30T08:32:00.075Z,99467.94
2023-01-30T08:37:08.292Z,99460.77
2023-01-30T08:42:17.732Z,99446.98
2023-01-30T08:47:22.337Z,99450.16
2023-01-30T08:52:27.343Z,99440.65
2023-01-30T08:57:33.994Z,99435.00
2023-01-30T09:02:39.858Z,99434.56
2023-01-30T09:07:43.868Z,99430.33
2023-01-30T09:12:48.608Z,99425.69
2023-01-30T09:17:56.846Z,99427.61
2023-01-30T09:23:02.246Z,99421.95
2023-01-30T09:28:06.199Z,99410.02
2023-01-30T09:33:11.567Z,99407.80
2023-01-30T09:38:16.884Z,99402.67
2023-01-30T09:43:45.310Z,99393.34
2023-01-30T09:49:05.767Z,99386.59
2023-01-30T09:54:24.811Z,99376.10
2023-01-30T09:59:40.257Z,99364.08
2023-01-30T10:05:00.857Z,99360.11
2023-01-30T10:11:04.383Z,99358.16
2023-01-30T10:16:29.260Z,99361.88
2023-01-30T10:22:11.311Z,99354.80
2023-01-30T10:27:18.639Z,99340.96
2023-01-30T10:33:14.662Z,99340.13
2023-01-30T10:38:22.457Z,99333.90
2023-01-30T10:43:44.353Z,99330.53
2023-01-30T10:49:17.342Z,99325.16
2023-01-30T10:54:43.830Z,99317.13
2023-01-30T10:59:51.037Z,99313.67
2023-01-30T11:05:17.168Z,99306.81
2023-01-30T11:10:31.166Z,99296.88
2023-01-30T11:15:41.486Z,99296.88
2023-01-30T11:20:48.093Z,99280.51
2023-01-30T11:26:10.122Z,99280.24
2023-01-30T11:31:41.657Z,99263.77
2023-01-30T11:36:52.619Z,99250.34
2023-01-30T11:42:16.729Z,99249.42
2023-01-30T11:47:25.649Z,99249.20
2023-01-30T11:52:32.628Z,99238.79
2023-01-30T11:57:42.443Z,99222.95
2023-01-30T12:02:48.403Z,99207.80
2023-01-30T12:07:54.135Z,99200.70
2023-01-30T12:13:01.399Z,99198.80
2023-01-30T12:18:19.959Z,99196.40
2023-01-30T12:23:53.650Z,99194.11
2023-01-30T12:29:02.686Z,99188.47
2023-01-30T12:34:08.457Z,99184.61
2023-01-30T12:39:41.974Z,99177.81
2023-01-30T12:44:49.278Z,99178.32
2023-01-30T12:50:15.374Z,99181.17
2023-01-30T12:56:07.216Z,99181.48
2023-01-30T13:01:30.838Z,99181.58
2023-01-30T13:07:26.232Z,99185.94
2023-01-30T13:13:11.068Z,99185.16
2023-01-30T13:18:38.359Z,99183.54
2023-01-30T13:24:02.294Z,99189.48
2023-01-30T13:29:28.469Z,99184.95
2023-01-30T13:34:43.851Z,99183.42
2023-01-30T13:39:55.638Z,99182.31
2023-01-30T13:45:00.971Z,99179.98
2023-01-30T13:50:51.584Z,99186.02
2023-01-30T13:56:27.165Z,99184.41
2023-01-30T14:02:22.049Z,99177.48
2023-01-30T14:07:44.771Z,99182.09
2023-01-30T14:12:51.131Z,99174.96
2023-01-30T14:18:08.229Z,99183.51
2023-01-30T14:23:23.623Z,99187.52
2023-01-30T14:28:30.219Z,99191.92
2023-01-30T14:33:51.441Z,99200.63
2023-01-30T14:39:36.612Z,99211.13
2023-01-30T14:45:05.229Z,99214.80
2023-01-30T14:50:23.604Z,99198.91
2023-01-30T14:55:34.940Z,99197.95
2023-01-30T15:00:39.421Z,99197.12
2023-01-30T15:05:45.269Z,99201.11
2023-01-30T15:10:52.136Z,99195.88
2023-01-30T15:16:28.515Z,99196.87
2023-01-30T15:22:11.419Z,99192.02
2023-01-30T15:27:31.934Z,99197.44
2023-01-30T15:32:35.944Z,99207.92
2023-01-30T15:37:51.484Z,99212.36
2023-01-30T15:43:21.991Z,99210.80
2023-01-30T15:49:07.390Z,99214.30
2023-01-30T15:54:12.962Z,99216.77
2023-01-30T15:59:44.676Z,99215.97
2023-01-30T16:04:49.226Z,99222.75
2023-01-30T16:10:08.699Z,99227.86
2023-01-30T16:15:20.078Z,99242.05
2023-01-30T16:20:25.063Z,99242.34
2023-01-30T16:25:35.915Z,99244.75
2023-01-30T16:30:42.918Z,99247.38
2023-01-30T16:35:47.581Z,99253.31
2023-01-30T16:40:52.499Z,99255.16
2023-01-30T16:46:34.863Z,99252.16
2023-01-30T16:51:42.421Z,99251.17
2023-01-30T16:57:17.041Z,99252.36
2023-01-30T17:02:45.397Z,99241.34
2023-01-30T17:07:52.875Z,99239.04
2023-01-30T17:13:00.288Z,99240.15
2023-01-30T17:18:07.158Z,99227.39
2023-01-30T17:23:18.063Z,99236.89
2023-01-30T17:28:24.947Z,99230.59
2023-01-30T17:33:34.872Z,99227.33
2023-01-30T17:38:40.471Z,99235.14
2023-01-30T17:43:44.685Z,99243.39
2023-01-30T17:48:52.245Z,99248.75
2023-01-30T17:54:00.032Z,99253.68
2023-01-30T17:59:25.167Z,99262.39
2023-01-30T18:04:29.812Z,99278.15
2023-01-30T18:09:34.732Z,99282.19
2023-01-30T18:14:39.741Z,99291.65
2023-01-30T18:19:46.512Z,99299.36
2023-01-30T18:24:55.279Z,99299.44
2023-01-30T18:30:00.478Z,99306.91
2023-01-30T18:35:07.392Z,99311.05
2023-01-30T18:40:15.734Z,99327.02
2023-01-30T18:45:21.353Z,99334.90
2023-01-30T18:50:26.182Z,99348.45
2023-01-30T18:55:32.052Z,99347.02
2023-01-30T19:00:37.253Z,99354.12
2023-01-30T19:05:42.817Z,99367.94
2023-01-30T19:10:51.034Z,99367.48
2023-01-30T19:16:04.694Z,99380.55
2023-01-30T19:21:11.041Z,99383.09
2023-01-30T19:26:17.798Z,99384.09
2023-01-30T19:31:24.216Z,99390.57
2023-01-30T19:36:33.798Z,99394.23
2023-01-30T19:41:39.402Z,99390.56
2023-01-30T19:46:45.513Z,99390.84
2023-01-30T19:51:50.524Z,99396.11
2023-01-30T19:56:59.950Z,99408.95
2023-01-30T20:09:15.129Z,99400.42
2023-01-30T20:14:27.358Z,99401.71
2023-01-30T20:19:35.329Z,99406.88
2023-01-30T20:24:43.079Z,99414.45
2023-01-30T20:29:53.367Z,99427.54
2023-01-30T20:35:02.866Z,99436.15
2023-01-30T20:40:10.557Z,99444.10
2023-01-30T20:45:19.852Z,99449.30
2023-01-30T20:50:28.879Z,99460.30
2023-01-30T20:55:34.685Z,99460.94
2023-01-30T21:00:40.769Z,99469.50
2023-01-30T21:05:58.370Z,99471.96
2023-01-30T21:11:13.715Z,99478.17
2023-01-30T21:16:26.501Z,99489.31
2023-01-30T21:21:37.069Z,99497.67
2023-01-30T21:26:46.798Z,99511.37
2023-01-30T21:31:52.482Z,99506.23
2023-01-30T21:37:16.267Z,99507.27
2023-01-30T21:42:40.389Z,99515.92
2023-01-30T21:47:45.723Z,99531.45
2023-01-30T21:52:50.109Z,99545.36
2023-01-30T21:57:54.405Z,99547.73
2023-01-30T22:03:03.636Z,99556.42
2023-01-30T22:08:16.428Z,99569.21
2023-01-30T22:13:20.604Z,99579.34
2023-01-30T22:18:24.583Z,99585.48
2023-01-30T22:23:38.536Z,99600.61
2023-01-30T22:28:48.612Z,99597.25
2023-01-30T22:34:00.608Z,99601.25
2023-01-30T22:39:06.704Z,99607.16
2023-01-30T22:44:14.051Z,99613.15
2023-01-30T22:49:19.697Z,99622.23
2023-01-30T22:54:24.998Z,99610.70
2023-01-30T22:59:30.253Z,99627.71
2023-01-30T23:04:34.331Z,99624.85
2023-01-30T23:09:38.300Z,99632.82
2023-01-30T23:14:45.443Z,99640.96
2023-01-30T23:19:51.372Z,99656.45
2023-01-30T23:24:56.962Z,99658.23
2023-01-30T23:30:01.001Z,99663.44
2023-01-30T23:35:05.283Z,99661.36
2023-01-30T23:40:11.467Z,99663.36
2023-01-30T23:45:15.412Z,99667.20
2023-01-30T23:50:19.358Z,99666.45
2023-01-30T23:55:23.357Z,99670.55
